sensor_id;sensor_type;location;lat;lon;timestamp;temperature;humidity
21778;DHT22;11050;52.222;20.916;2022-12-18T00:01:26;-4.00;99.90
21778;DHT22;11050;52.222;20.916;2022-12-18T00:04:01;-4.00;99.90
21778;DHT22;11050;52.222;20.916;2022-12-18T00:06:29;-4.00;99.90
21778;DHT22;11050;52.222;20.916;2022-12-18T00:08:57;-3.90;99.90
21778;DHT22;11050;52.222;20.916;2022-12-18T00:11:26;-3.90;99.90
21778;DHT22;11050;52.222;20.916;2022-12-18T00:13:55;-3.90;99.90
21778;DHT22;11050;52.222;20.916;2022-12-18T00:16:24;-3.80;99.90
21778;DHT22;11050;52.222;20.916;2022-12-18T00:18:52;-3.80;99.90
21778;DHT22;11050;52.222;20.916;2022-12-18T00:21:21;-3.80;99.90
21778;DHT22;11050;52.222;20.916;2022-12-18T00:23:48;-3.80;99.90
21778;DHT22;11050;52.222;20.916;2022-12-18T00:26:27;-3.80;99.90
21778;DHT22;11050;52.222;20.916;2022-12-18T00:28:55;-3.80;99.90
21778;DHT22;11050;52.222;20.916;2022-12-18T00:31:24;-3.70;99.90
21778;DHT22;11050;52.222;20.916;2022-12-18T00:33:51;-3.70;99.90
21778;DHT22;11050;52.222;20.916;2022-12-18T00:36:23;-3.70;99.90
21778;DHT22;11050;52.222;20.916;2022-12-18T00:38:51;-3.60;99.90
21778;DHT22;11050;52.222;20.916;2022-12-18T00:41:18;-3.60;99.90
21778;DHT22;11050;52.222;20.916;2022-12-18T00:44:03;-3.60;99.90
21778;DHT22;11050;52.222;20.916;2022-12-18T00:46:30;-3.60;99.90
21778;DHT22;11050;52.222;20.916;2022-12-18T00:48:56;-3.60;99.90
21778;DHT22;11050;52.222;20.916;2022-12-18T00:51:23;-3.50;99.90
21778;DHT22;11050;52.222;20.916;2022-12-18T00:53:49;-3.50;99.90
21778;DHT22;11050;52.222;20.916;2022-12-18T00:56:15;-3.50;99.90
21778;DHT22;11050;52.222;20.916;2022-12-18T00:58:41;-3.50;99.90
21778;DHT22;11050;52.222;20.916;2022-12-18T01:01:07;-3.50;99.90
21778;DHT22;11050;52.222;20.916;2022-12-18T01:03:33;-3.50;99.90
21778;DHT22;11050;52.222;20.916;2022-12-18T01:06:04;-3.50;99.90
21778;DHT22;11050;52.222;20.916;2022-12-18T01:08:31;-3.50;99.90
21778;DHT22;11050;52.222;20.916;2022-12-18T01:10:57;-3.50;99.90
21778;DHT22;11050;52.222;20.916;2022-12-18T01:13:23;-3.50;99.90
21778;DHT22;11050;52.222;20.916;2022-12-18T01:15:49;-3.50;99.90
21778;DHT22;11050;52.222;20.916;2022-12-18T01:18:16;-3.50;99.90
21778;DHT22;11050;52.222;20.916;2022-12-18T01:20:42;-3.50;99.90
21778;DHT22;11050;52.222;20.916;2022-12-18T01:23:08;-3.50;99.90
21778;DHT22;11050;52.222;20.916;2022-12-18T01:25:36;-3.50;99.90
21778;DHT22;11050;52.222;20.916;2022-12-18T01:28:02;-3.50;99.90
21778;DHT22;11050;52.222;20.916;2022-12-18T01:30:28;-3.40;99.90
21778;DHT22;11050;52.222;20.916;2022-12-18T01:32:54;-3.50;99.90
21778;DHT22;11050;52.222;20.916;2022-12-18T01:35:20;-3.50;99.90
21778;DHT22;11050;52.222;20.916;2022-12-18T01:37:46;-3.50;99.90
21778;DHT22;11050;52.222;20.916;2022-12-18T01:40:12;-3.50;99.90
21778;DHT22;11050;52.222;20.916;2022-12-18T01:42:38;-3.50;99.90
21778;DHT22;11050;52.222;20.916;2022-12-18T01:45:22;-3.50;99.90
21778;DHT22;11050;52.222;20.916;2022-12-18T01:48:05;-3.50;99.90
21778;DHT22;11050;52.222;20.916;2022-12-18T01:50:36;-3.50;99.90
21778;DHT22;11050;52.222;20.916;2022-12-18T01:53:15;-3.50;99.90
21778;DHT22;11050;52.222;20.916;2022-12-18T01:55:47;-3.50;99.90
21778;DHT22;11050;52.222;20.916;2022-12-18T01:58:19;-3.50;99.90
21778;DHT22;11050;52.222;20.916;2022-12-18T02:00:48;-3.50;99.90
21778;DHT22;11050;52.222;20.916;2022-12-18T02:03:14;-3.50;99.90
21778;DHT22;11050;52.222;20.916;2022-12-18T02:05:44;-3.50;99.90
21778;DHT22;11050;52.222;20.916;2022-12-18T02:11:54;-3.40;99.90
21778;DHT22;11050;52.222;20.916;2022-12-18T02:14:36;-3.40;99.90
21778;DHT22;11050;52.222;20.916;2022-12-18T02:17:20;-3.40;99.90
21778;DHT22;11050;52.222;20.916;2022-12-18T02:28:41;-3.40;99.90
21778;DHT22;11050;52.222;20.916;2022-12-18T02:31:16;-3.50;99.90
21778;DHT22;11050;52.222;20.916;2022-12-18T02:33:47;-3.40;99.90
21778;DHT22;11050;52.222;20.916;2022-12-18T02:36:16;-3.40;99.90
21778;DHT22;11050;52.222;20.916;2022-12-18T02:38:46;-3.40;99.90
21778;DHT22;11050;52.222;20.916;2022-12-18T02:41:13;-3.40;99.90
21778;DHT22;11050;52.222;20.916;2022-12-18T02:43:52;-3.40;99.90
21778;DHT22;11050;52.222;20.916;2022-12-18T02:46:34;-3.40;99.90
21778;DHT22;11050;52.222;20.916;2022-12-18T02:57:45;-3.40;99.90
21778;DHT22;11050;52.222;20.916;2022-12-18T03:00:19;-3.30;99.90
21778;DHT22;11050;52.222;20.916;2022-12-18T03:05:41;-3.30;99.90
21778;DHT22;11050;52.222;20.916;2022-12-18T03:08:17;-3.40;99.90
21778;DHT22;11050;52.222;20.916;2022-12-18T03:10:59;-3.40;99.90
21778;DHT22;11050;52.222;20.916;2022-12-18T03:13:45;-3.40;99.90
21778;DHT22;11050;52.222;20.916;2022-12-18T03:16:24;-3.40;99.90
21778;DHT22;11050;52.222;20.916;2022-12-18T03:18:59;-3.40;99.90
21778;DHT22;11050;52.222;20.916;2022-12-18T03:21:40;-3.40;99.90
21778;DHT22;11050;52.222;20.916;2022-12-18T03:24:20;-3.40;99.90
21778;DHT22;11050;52.222;20.916;2022-12-18T03:26:52;-3.40;99.90
21778;DHT22;11050;52.222;20.916;2022-12-18T03:32:13;-3.40;99.90
21778;DHT22;11050;52.222;20.916;2022-12-18T03:34:46;-3.40;99.90
21778;DHT22;11050;52.222;20.916;2022-12-18T03:37:16;-3.40;99.90
21778;DHT22;11050;52.222;20.916;2022-12-18T03:39:42;-3.40;99.90
21778;DHT22;11050;52.222;20.916;2022-12-18T03:42:20;-3.40;99.90
21778;DHT22;11050;52.222;20.916;2022-12-18T03:45:13;-3.40;99.90
21778;DHT22;11050;52.222;20.916;2022-12-18T03:48:00;-3.40;99.90
21778;DHT22;11050;52.222;20.916;2022-12-18T03:50:53;-3.40;99.90
21778;DHT22;11050;52.222;20.916;2022-12-18T03:56:17;-3.50;99.90
21778;DHT22;11050;52.222;20.916;2022-12-18T03:58:46;-3.50;99.90
21778;DHT22;11050;52.222;20.916;2022-12-18T04:01:15;-3.50;99.90
21778;DHT22;11050;52.222;20.916;2022-12-18T04:03:44;-3.50;99.90
21778;DHT22;11050;52.222;20.916;2022-12-18T04:06:13;-3.50;99.90
21778;DHT22;11050;52.222;20.916;2022-12-18T04:08:41;-3.60;99.90
21778;DHT22;11050;52.222;20.916;2022-12-18T04:11:08;-3.60;99.90
21778;DHT22;11050;52.222;20.916;2022-12-18T04:13:37;-3.50;99.90
21778;DHT22;11050;52.222;20.916;2022-12-18T04:16:04;-3.60;99.90
21778;DHT22;11050;52.222;20.916;2022-12-18T04:18:30;-3.60;99.90
21778;DHT22;11050;52.222;20.916;2022-12-18T04:20:56;-3.60;99.90
21778;DHT22;11050;52.222;20.916;2022-12-18T04:23:22;-3.60;99.90
21778;DHT22;11050;52.222;20.916;2022-12-18T04:25:48;-3.60;99.90
21778;DHT22;11050;52.222;20.916;2022-12-18T04:28:14;-3.70;99.90
21778;DHT22;11050;52.222;20.916;2022-12-18T04:30:40;-3.70;99.90
21778;DHT22;11050;52.222;20.916;2022-12-18T04:33:13;-3.70;99.90
21778;DHT22;11050;52.222;20.916;2022-12-18T04:35:39;-3.70;99.90
21778;DHT22;11050;52.222;20.916;2022-12-18T04:38:06;-3.70;99.90
21778;DHT22;11050;52.222;20.916;2022-12-18T04:40:35;-3.80;99.90
21778;DHT22;11050;52.222;20.916;2022-12-18T04:43:02;-3.80;99.90
21778;DHT22;11050;52.222;20.916;2022-12-18T04:45:29;-3.80;99.90
21778;DHT22;11050;52.222;20.916;2022-12-18T04:48:00;-3.90;99.90
21778;DHT22;11050;52.222;20.916;2022-12-18T04:50:28;-4.00;99.90
21778;DHT22;11050;52.222;20.916;2022-12-18T04:52:54;-4.10;99.90
21778;DHT22;11050;52.222;20.916;2022-12-18T04:55:20;-4.20;99.90
21778;DHT22;11050;52.222;20.916;2022-12-18T04:57:50;-4.30;99.90
21778;DHT22;11050;52.222;20.916;2022-12-18T05:00:16;-4.40;99.90
21778;DHT22;11050;52.222;20.916;2022-12-18T05:02:43;-4.40;99.90
21778;DHT22;11050;52.222;20.916;2022-12-18T05:05:09;-4.50;99.90
21778;DHT22;11050;52.222;20.916;2022-12-18T05:07:35;-4.60;99.90
21778;DHT22;11050;52.222;20.916;2022-12-18T05:10:01;-4.70;99.90
21778;DHT22;11050;52.222;20.916;2022-12-18T05:12:27;-4.70;99.90
21778;DHT22;11050;52.222;20.916;2022-12-18T05:14:52;-4.70;99.90
21778;DHT22;11050;52.222;20.916;2022-12-18T05:17:18;-4.70;99.90
21778;DHT22;11050;52.222;20.916;2022-12-18T05:19:44;-4.70;99.90
21778;DHT22;11050;52.222;20.916;2022-12-18T05:22:10;-4.70;99.90
21778;DHT22;11050;52.222;20.916;2022-12-18T05:24:36;-4.70;99.90
21778;DHT22;11050;52.222;20.916;2022-12-18T05:27:01;-4.70;99.90
21778;DHT22;11050;52.222;20.916;2022-12-18T05:29:27;-4.60;99.90
21778;DHT22;11050;52.222;20.916;2022-12-18T05:31:53;-4.60;99.90
21778;DHT22;11050;52.222;20.916;2022-12-18T05:34:19;-4.60;99.90
21778;DHT22;11050;52.222;20.916;2022-12-18T05:36:45;-4.50;99.90
21778;DHT22;11050;52.222;20.916;2022-12-18T05:39:10;-4.50;99.90
21778;DHT22;11050;52.222;20.916;2022-12-18T05:41:36;-4.50;99.90
21778;DHT22;11050;52.222;20.916;2022-12-18T05:44:02;-4.50;99.90
21778;DHT22;11050;52.222;20.916;2022-12-18T05:46:28;-4.50;99.90
21778;DHT22;11050;52.222;20.916;2022-12-18T05:48:55;-4.40;99.90
21778;DHT22;11050;52.222;20.916;2022-12-18T05:51:22;-4.40;99.90
21778;DHT22;11050;52.222;20.916;2022-12-18T05:53:48;-4.40;99.90
21778;DHT22;11050;52.222;20.916;2022-12-18T05:56:19;-4.40;99.90
21778;DHT22;11050;52.222;20.916;2022-12-18T05:58:46;-4.30;99.90
21778;DHT22;11050;52.222;20.916;2022-12-18T06:01:15;-4.30;99.90
21778;DHT22;11050;52.222;20.916;2022-12-18T06:03:42;-4.30;99.90
21778;DHT22;11050;52.222;20.916;2022-12-18T06:06:19;-4.30;99.90
21778;DHT22;11050;52.222;20.916;2022-12-18T06:08:48;-4.20;99.90
21778;DHT22;11050;52.222;20.916;2022-12-18T06:11:18;-4.20;99.90
21778;DHT22;11050;52.222;20.916;2022-12-18T06:13:45;-4.20;99.90
21778;DHT22;11050;52.222;20.916;2022-12-18T06:16:12;-4.10;99.90
21778;DHT22;11050;52.222;20.916;2022-12-18T06:18:38;-4.10;99.90
21778;DHT22;11050;52.222;20.916;2022-12-18T06:21:04;-4.10;99.90
21778;DHT22;11050;52.222;20.916;2022-12-18T06:23:30;-4.10;99.90
21778;DHT22;11050;52.222;20.916;2022-12-18T06:25:56;-4.00;99.90
21778;DHT22;11050;52.222;20.916;2022-12-18T06:28:22;-4.00;99.90
21778;DHT22;11050;52.222;20.916;2022-12-18T06:30:48;-4.00;99.90
21778;DHT22;11050;52.222;20.916;2022-12-18T06:33:15;-3.90;99.90
21778;DHT22;11050;52.222;20.916;2022-12-18T06:35:41;-3.90;99.90
21778;DHT22;11050;52.222;20.916;2022-12-18T06:38:08;-3.90;99.90
21778;DHT22;11050;52.222;20.916;2022-12-18T06:40:34;-4.00;99.90
21778;DHT22;11050;52.222;20.916;2022-12-18T06:42:59;-4.00;99.90
21778;DHT22;11050;52.222;20.916;2022-12-18T06:45:25;-3.90;99.90
21778;DHT22;11050;52.222;20.916;2022-12-18T06:47:51;-3.90;99.90
21778;DHT22;11050;52.222;20.916;2022-12-18T06:50:17;-3.90;99.90
21778;DHT22;11050;52.222;20.916;2022-12-18T06:52:43;-3.90;99.90
21778;DHT22;11050;52.222;20.916;2022-12-18T06:55:10;-3.90;99.90
21778;DHT22;11050;52.222;20.916;2022-12-18T06:57:37;-3.90;99.90
21778;DHT22;11050;52.222;20.916;2022-12-18T07:00:05;-3.80;99.90
21778;DHT22;11050;52.222;20.916;2022-12-18T07:02:32;-3.80;99.90
21778;DHT22;11050;52.222;20.916;2022-12-18T07:04:58;-3.80;99.90
21778;DHT22;11050;52.222;20.916;2022-12-18T07:07:24;-3.80;99.90
21778;DHT22;11050;52.222;20.916;2022-12-18T07:09:50;-3.70;99.90
21778;DHT22;11050;52.222;20.916;2022-12-18T07:12:16;-3.70;99.90
21778;DHT22;11050;52.222;20.916;2022-12-18T07:14:42;-3.70;99.90
21778;DHT22;11050;52.222;20.916;2022-12-18T07:17:08;-3.60;99.90
21778;DHT22;11050;52.222;20.916;2022-12-18T07:19:34;-3.60;99.90
21778;DHT22;11050;52.222;20.916;2022-12-18T07:22:00;-3.60;99.90
21778;DHT22;11050;52.222;20.916;2022-12-18T07:24:26;-3.50;99.90
21778;DHT22;11050;52.222;20.916;2022-12-18T07:26:52;-3.50;99.90
21778;DHT22;11050;52.222;20.916;2022-12-18T07:29:18;-3.50;99.90
21778;DHT22;11050;52.222;20.916;2022-12-18T07:31:44;-3.40;99.90
21778;DHT22;11050;52.222;20.916;2022-12-18T07:34:13;-3.40;99.90
21778;DHT22;11050;52.222;20.916;2022-12-18T07:36:40;-3.40;99.90
21778;DHT22;11050;52.222;20.916;2022-12-18T07:39:06;-3.40;99.90
21778;DHT22;11050;52.222;20.916;2022-12-18T07:41:32;-3.30;99.90
21778;DHT22;11050;52.222;20.916;2022-12-18T07:43:58;-3.30;99.90
21778;DHT22;11050;52.222;20.916;2022-12-18T07:46:24;-3.30;99.90
21778;DHT22;11050;52.222;20.916;2022-12-18T07:48:50;-3.30;99.90
21778;DHT22;11050;52.222;20.916;2022-12-18T07:51:17;-3.30;99.90
21778;DHT22;11050;52.222;20.916;2022-12-18T07:53:44;-3.30;99.90
21778;DHT22;11050;52.222;20.916;2022-12-18T07:56:12;-3.30;99.90
21778;DHT22;11050;52.222;20.916;2022-12-18T07:58:38;-3.30;99.90
21778;DHT22;11050;52.222;20.916;2022-12-18T08:01:09;-3.30;99.90
21778;DHT22;11050;52.222;20.916;2022-12-18T08:03:37;-3.30;99.90
21778;DHT22;11050;52.222;20.916;2022-12-18T08:06:07;-3.30;99.90
21778;DHT22;11050;52.222;20.916;2022-12-18T08:08:35;-3.30;99.90
21778;DHT22;11050;52.222;20.916;2022-12-18T08:11:01;-3.30;99.90
21778;DHT22;11050;52.222;20.916;2022-12-18T08:13:28;-3.30;99.90
21778;DHT22;11050;52.222;20.916;2022-12-18T08:16:03;-3.30;99.90
21778;DHT22;11050;52.222;20.916;2022-12-18T08:18:33;-3.30;99.90
21778;DHT22;11050;52.222;20.916;2022-12-18T08:21:15;-3.30;99.90
21778;DHT22;11050;52.222;20.916;2022-12-18T08:23:47;-3.30;99.90
21778;DHT22;11050;52.222;20.916;2022-12-18T08:26:13;-3.20;99.90
21778;DHT22;11050;52.222;20.916;2022-12-18T08:28:40;-3.30;99.90
21778;DHT22;11050;52.222;20.916;2022-12-18T08:31:07;-3.30;99.90
21778;DHT22;11050;52.222;20.916;2022-12-18T08:33:34;-3.30;99.90
21778;DHT22;11050;52.222;20.916;2022-12-18T08:36:01;-3.30;99.90
21778;DHT22;11050;52.222;20.916;2022-12-18T08:38:32;-3.30;99.90
21778;DHT22;11050;52.222;20.916;2022-12-18T08:40:59;-3.30;99.90
21778;DHT22;11050;52.222;20.916;2022-12-18T08:43:26;-3.30;99.90
21778;DHT22;11050;52.222;20.916;2022-12-18T08:46:11;-3.30;99.90
21778;DHT22;11050;52.222;20.916;2022-12-18T08:48:37;-3.20;99.90
21778;DHT22;11050;52.222;20.916;2022-12-18T08:51:03;-3.20;99.90
21778;DHT22;11050;52.222;20.916;2022-12-18T08:53:29;-3.20;99.90
21778;DHT22;11050;52.222;20.916;2022-12-18T08:55:56;-3.20;99.90
21778;DHT22;11050;52.222;20.916;2022-12-18T08:58:22;-3.10;99.90
21778;DHT22;11050;52.222;20.916;2022-12-18T09:00:48;-3.10;99.90
21778;DHT22;11050;52.222;20.916;2022-12-18T09:03:15;-3.10;99.90
21778;DHT22;11050;52.222;20.916;2022-12-18T09:05:43;-3.10;99.90
21778;DHT22;11050;52.222;20.916;2022-12-18T09:08:11;-3.00;99.90
21778;DHT22;11050;52.222;20.916;2022-12-18T09:10:48;-3.00;99.90
21778;DHT22;11050;52.222;20.916;2022-12-18T09:13:15;-2.90;99.90
21778;DHT22;11050;52.222;20.916;2022-12-18T09:15:45;-2.90;99.90
21778;DHT22;11050;52.222;20.916;2022-12-18T09:18:14;-2.90;99.90
21778;DHT22;11050;52.222;20.916;2022-12-18T09:20:41;-2.80;99.90
21778;DHT22;11050;52.222;20.916;2022-12-18T09:23:07;-2.90;99.90
21778;DHT22;11050;52.222;20.916;2022-12-18T09:25:34;-2.90;99.90
21778;DHT22;11050;52.222;20.916;2022-12-18T09:28:03;-2.90;99.90
21778;DHT22;11050;52.222;20.916;2022-12-18T09:30:31;-2.90;99.90
21778;DHT22;11050;52.222;20.916;2022-12-18T09:32:59;-2.80;99.90
21778;DHT22;11050;52.222;20.916;2022-12-18T09:35:25;-2.80;99.90
21778;DHT22;11050;52.222;20.916;2022-12-18T09:37:53;-2.80;99.90
21778;DHT22;11050;52.222;20.916;2022-12-18T09:40:22;-2.80;99.90
21778;DHT22;11050;52.222;20.916;2022-12-18T09:42:57;-2.70;99.90
21778;DHT22;11050;52.222;20.916;2022-12-18T09:45:26;-2.70;99.90
21778;DHT22;11050;52.222;20.916;2022-12-18T09:47:54;-2.70;99.90
21778;DHT22;11050;52.222;20.916;2022-12-18T09:50:23;-2.60;99.90
21778;DHT22;11050;52.222;20.916;2022-12-18T09:52:54;-2.60;99.90
21778;DHT22;11050;52.222;20.916;2022-12-18T09:55:32;-2.60;99.90
21778;DHT22;11050;52.222;20.916;2022-12-18T09:58:30;-2.60;99.90
21778;DHT22;11050;52.222;20.916;2022-12-18T10:01:06;-2.60;99.90
21778;DHT22;11050;52.222;20.916;2022-12-18T10:03:35;-2.60;99.90
21778;DHT22;11050;52.222;20.916;2022-12-18T10:06:06;-2.60;99.90
21778;DHT22;11050;52.222;20.916;2022-12-18T10:26:04;-2.70;99.90
21778;DHT22;11050;52.222;20.916;2022-12-18T10:28:36;-2.60;99.90
21778;DHT22;11050;52.222;20.916;2022-12-18T10:31:17;-2.60;99.90
21778;DHT22;11050;52.222;20.916;2022-12-18T10:33:45;-2.50;99.90
21778;DHT22;11050;52.222;20.916;2022-12-18T10:36:11;-2.50;99.90
21778;DHT22;11050;52.222;20.916;2022-12-18T10:38:37;-2.60;99.90
21778;DHT22;11050;52.222;20.916;2022-12-18T10:41:24;-2.50;99.90
21778;DHT22;11050;52.222;20.916;2022-12-18T10:44:23;-2.50;99.90
21778;DHT22;11050;52.222;20.916;2022-12-18T10:47:03;-2.40;99.90
21778;DHT22;11050;52.222;20.916;2022-12-18T10:49:33;-2.30;99.90
21778;DHT22;11050;52.222;20.916;2022-12-18T10:52:18;-2.20;99.90
21778;DHT22;11050;52.222;20.916;2022-12-18T10:54:59;-2.20;99.90
21778;DHT22;11050;52.222;20.916;2022-12-18T11:00:19;-1.90;99.90
21778;DHT22;11050;52.222;20.916;2022-12-18T11:02:48;-1.80;99.90
21778;DHT22;11050;52.222;20.916;2022-12-18T11:05:27;-1.80;99.90
21778;DHT22;11050;52.222;20.916;2022-12-18T11:07:59;-1.70;99.90
21778;DHT22;11050;52.222;20.916;2022-12-18T11:10:35;-1.70;99.90
21778;DHT22;11050;52.222;20.916;2022-12-18T11:13:23;-1.70;99.90
21778;DHT22;11050;52.222;20.916;2022-12-18T11:15:51;-1.70;99.90
21778;DHT22;11050;52.222;20.916;2022-12-18T11:18:19;-1.70;99.90
21778;DHT22;11050;52.222;20.916;2022-12-18T11:20:51;-1.70;99.90
21778;DHT22;11050;52.222;20.916;2022-12-18T11:23:23;-1.70;99.90
21778;DHT22;11050;52.222;20.916;2022-12-18T11:25:55;-1.70;99.90
21778;DHT22;11050;52.222;20.916;2022-12-18T11:28:27;-1.60;99.90
21778;DHT22;11050;52.222;20.916;2022-12-18T11:31:28;-1.60;99.90
21778;DHT22;11050;52.222;20.916;2022-12-18T11:36:39;-1.70;99.90
21778;DHT22;11050;52.222;20.916;2022-12-18T11:39:24;-1.60;99.90
21778;DHT22;11050;52.222;20.916;2022-12-18T11:42:35;-1.60;99.90
21778;DHT22;11050;52.222;20.916;2022-12-18T11:47:49;-1.60;99.90
21778;DHT22;11050;52.222;20.916;2022-12-18T11:53:16;-1.40;99.90
21778;DHT22;11050;52.222;20.916;2022-12-18T11:56:13;-1.20;99.90
21778;DHT22;11050;52.222;20.916;2022-12-18T11:59:14;-1.10;99.90
21778;DHT22;11050;52.222;20.916;2022-12-18T12:08:26;-0.80;99.90
21778;DHT22;11050;52.222;20.916;2022-12-18T12:11:09;-0.80;99.90
21778;DHT22;11050;52.222;20.916;2022-12-18T12:25:41;-1.00;99.90
21778;DHT22;11050;52.222;20.916;2022-12-18T12:32:03;-1.20;99.90
21778;DHT22;11050;52.222;20.916;2022-12-18T12:40:36;-1.30;99.90
21778;DHT22;11050;52.222;20.916;2022-12-18T12:46:05;-1.30;99.90
21778;DHT22;11050;52.222;20.916;2022-12-18T12:49:09;-1.40;99.90
21778;DHT22;11050;52.222;20.916;2022-12-18T12:51:41;-1.40;99.90
21778;DHT22;11050;52.222;20.916;2022-12-18T12:54:18;-1.40;99.90
21778;DHT22;11050;52.222;20.916;2022-12-18T12:59:50;-1.50;99.90
21778;DHT22;11050;52.222;20.916;2022-12-18T13:08:00;-1.70;99.90
21778;DHT22;11050;52.222;20.916;2022-12-18T13:10:39;-1.80;99.90
21778;DHT22;11050;52.222;20.916;2022-12-18T13:13:12;-1.90;99.90
21778;DHT22;11050;52.222;20.916;2022-12-18T13:15:49;-2.00;99.90
21778;DHT22;11050;52.222;20.916;2022-12-18T13:18:30;-2.10;99.90
21778;DHT22;11050;52.222;20.916;2022-12-18T13:25:53;-2.30;99.90
21778;DHT22;11050;52.222;20.916;2022-12-18T13:31:13;-2.40;99.90
21778;DHT22;11050;52.222;20.916;2022-12-18T13:36:32;-2.40;99.90
21778;DHT22;11050;52.222;20.916;2022-12-18T13:41:41;-2.60;99.90
21778;DHT22;11050;52.222;20.916;2022-12-18T13:47:02;-2.70;99.90
21778;DHT22;11050;52.222;20.916;2022-12-18T13:49:39;-2.70;99.90
21778;DHT22;11050;52.222;20.916;2022-12-18T13:52:25;-2.80;99.90
21778;DHT22;11050;52.222;20.916;2022-12-18T13:54:57;-2.80;99.90
21778;DHT22;11050;52.222;20.916;2022-12-18T13:57:28;-2.90;99.90
21778;DHT22;11050;52.222;20.916;2022-12-18T14:02:48;-2.90;99.90
21778;DHT22;11050;52.222;20.916;2022-12-18T14:05:33;-2.90;99.90
21778;DHT22;11050;52.222;20.916;2022-12-18T14:08:08;-3.00;99.90
21778;DHT22;11050;52.222;20.916;2022-12-18T14:10:43;-2.90;99.90
21778;DHT22;11050;52.222;20.916;2022-12-18T14:15:53;-3.00;99.90
21778;DHT22;11050;52.222;20.916;2022-12-18T14:19:08;-3.00;99.90
21778;DHT22;11050;52.222;20.916;2022-12-18T14:21:29;-3.00;99.90
21778;DHT22;11050;52.222;20.916;2022-12-18T14:24:11;-3.00;99.90
21778;DHT22;11050;52.222;20.916;2022-12-18T14:26:38;-3.10;99.90
21778;DHT22;11050;52.222;20.916;2022-12-18T14:32:14;-3.10;99.90
21778;DHT22;11050;52.222;20.916;2022-12-18T14:34:53;-3.20;99.90
21778;DHT22;11050;52.222;20.916;2022-12-18T14:37:26;-3.20;99.90
21778;DHT22;11050;52.222;20.916;2022-12-18T14:39:57;-3.20;99.90
21778;DHT22;11050;52.222;20.916;2022-12-18T14:42:28;-3.30;99.90
21778;DHT22;11050;52.222;20.916;2022-12-18T14:47:59;-3.30;99.90
21778;DHT22;11050;52.222;20.916;2022-12-18T14:50:26;-3.30;99.90
21778;DHT22;11050;52.222;20.916;2022-12-18T14:52:52;-3.30;99.90
21778;DHT22;11050;52.222;20.916;2022-12-18T14:55:19;-3.30;99.90
21778;DHT22;11050;52.222;20.916;2022-12-18T14:57:50;-3.30;99.90
21778;DHT22;11050;52.222;20.916;2022-12-18T15:00:22;-3.30;99.90
21778;DHT22;11050;52.222;20.916;2022-12-18T15:02:54;-3.30;99.90
21778;DHT22;11050;52.222;20.916;2022-12-18T15:05:28;-3.30;99.90
21778;DHT22;11050;52.222;20.916;2022-12-18T15:07:57;-3.30;99.90
21778;DHT22;11050;52.222;20.916;2022-12-18T15:10:26;-3.20;99.90
21778;DHT22;11050;52.222;20.916;2022-12-18T15:21:07;-3.20;99.90
21778;DHT22;11050;52.222;20.916;2022-12-18T15:26:10;-3.20;99.90
21778;DHT22;11050;52.222;20.916;2022-12-18T15:28:50;-3.20;99.90
21778;DHT22;11050;52.222;20.916;2022-12-18T15:34:10;-3.20;99.90
21778;DHT22;11050;52.222;20.916;2022-12-18T15:36:38;-3.20;99.90
21778;DHT22;11050;52.222;20.916;2022-12-18T15:39:04;-3.20;99.90
21778;DHT22;11050;52.222;20.916;2022-12-18T15:41:35;-3.20;99.90
21778;DHT22;11050;52.222;20.916;2022-12-18T15:44:03;-3.20;99.90
21778;DHT22;11050;52.222;20.916;2022-12-18T15:46:46;-3.20;99.90
21778;DHT22;11050;52.222;20.916;2022-12-18T15:49:12;-3.20;99.90
21778;DHT22;11050;52.222;20.916;2022-12-18T15:51:38;-3.20;99.90
21778;DHT22;11050;52.222;20.916;2022-12-18T15:54:06;-3.20;99.90
21778;DHT22;11050;52.222;20.916;2022-12-18T15:56:38;-3.20;99.90
21778;DHT22;11050;52.222;20.916;2022-12-18T15:59:23;-3.20;99.90
21778;DHT22;11050;52.222;20.916;2022-12-18T16:01:51;-3.20;99.90
21778;DHT22;11050;52.222;20.916;2022-12-18T16:04:21;-3.20;99.90
21778;DHT22;11050;52.222;20.916;2022-12-18T16:06:49;-3.20;99.90
21778;DHT22;11050;52.222;20.916;2022-12-18T16:09:16;-3.20;99.90
21778;DHT22;11050;52.222;20.916;2022-12-18T16:11:43;-3.20;99.90
21778;DHT22;11050;52.222;20.916;2022-12-18T16:16:52;-3.20;99.90
21778;DHT22;11050;52.222;20.916;2022-12-18T16:19:23;-3.20;99.90
21778;DHT22;11050;52.222;20.916;2022-12-18T16:21:51;-3.20;99.90
21778;DHT22;11050;52.222;20.916;2022-12-18T16:24:24;-3.20;99.90
21778;DHT22;11050;52.222;20.916;2022-12-18T16:26:52;-3.20;99.90
21778;DHT22;11050;52.222;20.916;2022-12-18T16:29:20;-3.20;99.90
21778;DHT22;11050;52.222;20.916;2022-12-18T16:31:50;-3.20;99.90
21778;DHT22;11050;52.222;20.916;2022-12-18T16:34:27;-3.20;99.90
21778;DHT22;11050;52.222;20.916;2022-12-18T16:37:04;-3.20;99.90
21778;DHT22;11050;52.222;20.916;2022-12-18T16:39:32;-3.20;99.90
21778;DHT22;11050;52.222;20.916;2022-12-18T16:42:03;-3.20;99.90
21778;DHT22;11050;52.222;20.916;2022-12-18T16:44:31;-3.20;99.90
21778;DHT22;11050;52.222;20.916;2022-12-18T16:46:58;-3.30;99.90
21778;DHT22;11050;52.222;20.916;2022-12-18T16:49:27;-3.30;99.90
21778;DHT22;11050;52.222;20.916;2022-12-18T16:51:54;-3.30;99.90
21778;DHT22;11050;52.222;20.916;2022-12-18T16:54:20;-3.30;99.90
21778;DHT22;11050;52.222;20.916;2022-12-18T16:56:46;-3.40;99.90
21778;DHT22;11050;52.222;20.916;2022-12-18T16:59:14;-3.40;99.90
21778;DHT22;11050;52.222;20.916;2022-12-18T17:01:40;-3.40;99.90
21778;DHT22;11050;52.222;20.916;2022-12-18T17:04:07;-3.50;99.90
21778;DHT22;11050;52.222;20.916;2022-12-18T17:06:38;-3.50;99.90
21778;DHT22;11050;52.222;20.916;2022-12-18T17:09:09;-3.50;99.90
21778;DHT22;11050;52.222;20.916;2022-12-18T17:11:37;-3.60;99.90
21778;DHT22;11050;52.222;20.916;2022-12-18T17:14:09;-3.60;99.90
21778;DHT22;11050;52.222;20.916;2022-12-18T17:16:40;-3.70;99.90
21778;DHT22;11050;52.222;20.916;2022-12-18T17:19:06;-3.70;99.90
21778;DHT22;11050;52.222;20.916;2022-12-18T17:21:32;-3.70;99.90
21778;DHT22;11050;52.222;20.916;2022-12-18T17:24:01;-3.70;99.90
21778;DHT22;11050;52.222;20.916;2022-12-18T17:26:27;-3.70;99.90
21778;DHT22;11050;52.222;20.916;2022-12-18T17:28:56;-3.70;99.90
21778;DHT22;11050;52.222;20.916;2022-12-18T17:31:24;-3.70;99.90
21778;DHT22;11050;52.222;20.916;2022-12-18T17:33:52;-3.70;99.90
21778;DHT22;11050;52.222;20.916;2022-12-18T17:36:19;-3.70;99.90
21778;DHT22;11050;52.222;20.916;2022-12-18T17:38:54;-3.70;99.90
21778;DHT22;11050;52.222;20.916;2022-12-18T17:41:22;-3.70;99.90
21778;DHT22;11050;52.222;20.916;2022-12-18T17:43:53;-3.80;99.90
21778;DHT22;11050;52.222;20.916;2022-12-18T17:46:37;-3.80;99.90
21778;DHT22;11050;52.222;20.916;2022-12-18T17:49:03;-3.80;99.90
21778;DHT22;11050;52.222;20.916;2022-12-18T17:51:30;-3.80;99.90
21778;DHT22;11050;52.222;20.916;2022-12-18T17:53:56;-3.80;99.90
21778;DHT22;11050;52.222;20.916;2022-12-18T17:56:22;-3.90;99.90
21778;DHT22;11050;52.222;20.916;2022-12-18T17:58:49;-3.90;99.90